Meeandah — 28744QE — position and weather

sailwx.info

Track history (hours):
 
Tides and Currents Weather Stations Pressure Air Temp Water Temp Dewpoint Dewpoint Depression Visibility Wind Speed Wind Dir Waves Ship Positions

Meeandah

Last reported at 2017-Sep-20 12:39 UTC. Time now 2017-Sep-21 07:08 UTC.
Position S 27°27' E 153°06'.

Length 24 m.

Type: Passenger vessel. MMSI: 503576400.

Date/timePositionNaut miles runAvg speedWind from/ knotsBaromVisibWave heightAir tempDewpointWater temp
2017-Sep-20 12:39S 27°27' E 153°06'0 0.4
2017-Sep-20 12:30S 27°27' E 153°06'4 1.5
2017-Sep-20 09:57S 27°28' E 153°02'1 0.8
2017-Sep-20 08:56S 27°28' E 153°01'0 0.0
2017-Sep-19 20:56S 27°28' E 153°01'0 0.0
2017-Sep-19 07:40S 27°28' E 153°01'1 2.2
2017-Sep-19 07:23S 27°28' E 153°02'0 0.0
2017-Sep-18 07:51S 27°28' E 153°02'1 0.1
2017-Sep-17 21:25S 27°28' E 153°01'1 0.1
2017-Sep-17 12:27S 27°28' E 153°02'1 0.8
2017-Sep-17 11:27S 27°28' E 153°01'1 0.4
2017-Sep-17 09:27S 27°28' E 153°02'1 0.9
2017-Sep-17 08:27S 27°28' E 153°01'1 0.1
2017-Sep-16 20:56S 27°28' E 153°02'0 0.0
2017-Sep-16 14:09S 27°28' E 153°02'0 0.1
2017-Sep-16 12:31S 27°28' E 153°02'0 8.5
2017-Sep-16 12:30S 27°28' E 153°02'1 0.7
2017-Sep-16 11:26S 27°28' E 153°01'5 0.3
2017-Sep-15 20:42S 27°27' E 153°06'0 0.0
2017-Sep-15 20:30S 27°27' E 153°06'0 0.0
2017-Sep-15 19:59S 27°27' E 153°06'0 0.0
2017-Sep-15 19:30S 27°27' E 153°06'0 0.0
2017-Sep-15 18:59S 27°27' E 153°06'0 0.0
2017-Sep-15 18:29S 27°27' E 153°06'0 0.0
2017-Sep-15 18:01S 27°27' E 153°06'0 0.0
2017-Sep-15 17:31S 27°27' E 153°06'0 0.0
2017-Sep-15 17:01S 27°27' E 153°06'0 0.0
2017-Sep-15 16:31S 27°27' E 153°06'0 0.0
2017-Sep-15 16:00S 27°27' E 153°06'0 0.0
2017-Sep-15 15:31S 27°27' E 153°06'0 0.0
2017-Sep-15 15:01S 27°27' E 153°06'0 0.0
2017-Sep-15 14:31S 27°27' E 153°06'0 0.0
2017-Sep-15 14:00S 27°27' E 153°06'0 0.0
2017-Sep-15 13:31S 27°27' E 153°06'0 0.0
2017-Sep-15 13:01S 27°27' E 153°06'0 0.0
2017-Sep-15 12:30S 27°27' E 153°06'0 0.0
2017-Sep-15 12:01S 27°27' E 153°06'0 0.0
2017-Sep-15 11:30S 27°27' E 153°06'0 0.0
2017-Sep-15 11:00S 27°27' E 153°06'0 0.0
2017-Sep-15 10:31S 27°27' E 153°06'0 0.0
2017-Sep-15 10:00S 27°27' E 153°06'0 0.0
2017-Sep-15 09:21S 27°27' E 153°06'4 4.2
2017-Sep-15 08:26S 27°28' E 153°02'0 0.0
2017-Sep-15 07:22S 27°28' E 153°02'0 0.0
2017-Sep-13 22:58S 27°28' E 153°02'1 0.1
2017-Sep-13 12:56S 27°28' E 153°01'1 0.5
2017-Sep-13 10:59S 27°28' E 153°02'1 0.9
2017-Sep-13 09:56S 27°28' E 153°01'1 0.5
2017-Sep-13 07:57S 27°28' E 153°02'1 0.9
2017-Sep-13 06:55S 27°28' E 153°01'0 0.0
2017-Sep-12 20:25S 27°28' E 153°01'4 0.5
2017-Sep-12 13:20S 27°27' E 153°05'3 2.1
2017-Sep-12 11:57S 27°28' E 153°02'1 0.9
2017-Sep-12 10:55S 27°28' E 153°01'1 0.4
2017-Sep-12 08:57S 27°28' E 153°02'1 0.7
2017-Sep-12 07:55S 27°28' E 153°01'0 0.0
2017-Sep-11 08:10S 27°28' E 153°01'1 2.6
2017-Sep-11 07:53S 27°28' E 153°02'  
Track history (hours):
 
Tides and Currents Weather Stations Pressure Air Temp Water Temp Dewpoint Dewpoint Depression Visibility Wind Speed Wind Dir Waves Ship Positions

Meeandah

Last reported at 2017-Sep-20 12:39 UTC. Time now 2017-Sep-21 07:08 UTC.
Position S 27°27' E 153°06'.

Length 24 m.

Type: Passenger vessel. MMSI: 503576400.

Date/timePositionNaut miles runAvg speedWind from/ knotsBaromVisibWave heightAir tempDewpointWater temp
2017-Sep-20 12:39S 27°27' E 153°06'0 0.4
2017-Sep-20 12:30S 27°27' E 153°06'4 1.5
2017-Sep-20 09:57S 27°28' E 153°02'1 0.8
2017-Sep-20 08:56S 27°28' E 153°01'0 0.0
2017-Sep-19 20:56S 27°28' E 153°01'0 0.0
2017-Sep-19 07:40S 27°28' E 153°01'1 2.2
2017-Sep-19 07:23S 27°28' E 153°02'0 0.0
2017-Sep-18 07:51S 27°28' E 153°02'1 0.1
2017-Sep-17 21:25S 27°28' E 153°01'1 0.1
2017-Sep-17 12:27S 27°28' E 153°02'1 0.8
2017-Sep-17 11:27S 27°28' E 153°01'1 0.4
2017-Sep-17 09:27S 27°28' E 153°02'1 0.9
2017-Sep-17 08:27S 27°28' E 153°01'1 0.1
2017-Sep-16 20:56S 27°28' E 153°02'0 0.0
2017-Sep-16 14:09S 27°28' E 153°02'0 0.1
2017-Sep-16 12:31S 27°28' E 153°02'0 8.5
2017-Sep-16 12:30S 27°28' E 153°02'1 0.7
2017-Sep-16 11:26S 27°28' E 153°01'5 0.3
2017-Sep-15 20:42S 27°27' E 153°06'0 0.0
2017-Sep-15 20:30S 27°27' E 153°06'0 0.0
2017-Sep-15 19:59S 27°27' E 153°06'0 0.0
2017-Sep-15 19:30S 27°27' E 153°06'0 0.0
2017-Sep-15 18:59S 27°27' E 153°06'0 0.0
2017-Sep-15 18:29S 27°27' E 153°06'0 0.0
2017-Sep-15 18:01S 27°27' E 153°06'0 0.0
2017-Sep-15 17:31S 27°27' E 153°06'0 0.0
2017-Sep-15 17:01S 27°27' E 153°06'0 0.0
2017-Sep-15 16:31S 27°27' E 153°06'0 0.0
2017-Sep-15 16:00S 27°27' E 153°06'0 0.0
2017-Sep-15 15:31S 27°27' E 153°06'0 0.0
2017-Sep-15 15:01S 27°27' E 153°06'0 0.0
2017-Sep-15 14:31S 27°27' E 153°06'0 0.0
2017-Sep-15 14:00S 27°27' E 153°06'0 0.0
2017-Sep-15 13:31S 27°27' E 153°06'0 0.0
2017-Sep-15 13:01S 27°27' E 153°06'0 0.0
2017-Sep-15 12:30S 27°27' E 153°06'0 0.0
2017-Sep-15 12:01S 27°27' E 153°06'0 0.0
2017-Sep-15 11:30S 27°27' E 153°06'0 0.0
2017-Sep-15 11:00S 27°27' E 153°06'0 0.0
2017-Sep-15 10:31S 27°27' E 153°06'0 0.0
2017-Sep-15 10:00S 27°27' E 153°06'0 0.0
2017-Sep-15 09:21S 27°27' E 153°06'4 4.2
2017-Sep-15 08:26S 27°28' E 153°02'0 0.0
2017-Sep-15 07:22S 27°28' E 153°02'0 0.0
2017-Sep-13 22:58S 27°28' E 153°02'1 0.1
2017-Sep-13 12:56S 27°28' E 153°01'1 0.5
2017-Sep-13 10:59S 27°28' E 153°02'1 0.9
2017-Sep-13 09:56S 27°28' E 153°01'1 0.5
2017-Sep-13 07:57S 27°28' E 153°02'1 0.9
2017-Sep-13 06:55S 27°28' E 153°01'0 0.0
2017-Sep-12 20:25S 27°28' E 153°01'4 0.5
2017-Sep-12 13:20S 27°27' E 153°05'3 2.1
2017-Sep-12 11:57S 27°28' E 153°02'1 0.9
2017-Sep-12 10:55S 27°28' E 153°01'1 0.4
2017-Sep-12 08:57S 27°28' E 153°02'1 0.7
2017-Sep-12 07:55S 27°28' E 153°01'0 0.0
2017-Sep-11 08:10S 27°28' E 153°01'1 2.6
2017-Sep-11 07:53S 27°28' E 153°02'  

Dump ship's entire track history